createdAt,value
2023-04-30T00:00:54.249Z,7.20
2023-04-30T00:05:56.072Z,7.26
2023-04-30T00:10:59.691Z,7.24
2023-04-30T00:16:01.838Z,7.15
2023-04-30T00:21:04.526Z,7.05
2023-04-30T00:26:08.054Z,6.95
2023-04-30T00:31:10.234Z,7.03
2023-04-30T00:36:12.393Z,7.09
2023-04-30T00:41:16.655Z,7.05
2023-04-30T00:46:18.401Z,6.93
2023-04-30T00:51:21.203Z,6.85
2023-04-30T00:56:24.620Z,6.73
2023-04-30T01:01:27.912Z,6.63
2023-04-30T01:06:29.819Z,6.43
2023-04-30T01:11:45.461Z,6.20
2023-04-30T01:16:53.087Z,5.91
2023-04-30T01:21:57.888Z,5.64
2023-04-30T01:27:15.944Z,5.36
2023-04-30T01:32:19.294Z,5.18
2023-04-30T01:37:29.466Z,5.00
2023-04-30T01:42:39.788Z,4.73
2023-04-30T01:47:52.997Z,4.61
2023-04-30T01:52:59.112Z,4.52
2023-04-30T01:58:05.348Z,4.44
2023-04-30T02:03:08.967Z,4.35
2023-04-30T02:08:11.250Z,4.15
2023-04-30T02:13:13.474Z,3.99
2023-04-30T02:18:17.004Z,3.89
2023-04-30T02:23:19.147Z,3.80
2023-04-30T02:28:21.286Z,3.67
2023-04-30T02:33:25.380Z,3.75
2023-04-30T02:38:27.609Z,3.64
2023-04-30T02:43:29.776Z,3.73
2023-04-30T02:48:33.315Z,3.84
2023-04-30T02:53:35.482Z,3.90
2023-04-30T02:58:37.636Z,3.81
2023-04-30T03:03:40.986Z,3.76
2023-04-30T03:08:43.221Z,3.68
2023-04-30T03:13:45.786Z,3.63
2023-04-30T03:18:49.906Z,3.56
2023-04-30T03:23:52.083Z,3.40
2023-04-30T03:28:54.180Z,3.32
2023-04-30T03:33:58.161Z,3.21
2023-04-30T03:39:00.231Z,3.09
2023-04-30T03:44:02.372Z,3.03
2023-04-30T03:49:06.010Z,2.93
2023-04-30T03:54:08.194Z,2.84
2023-04-30T03:59:10.362Z,2.84
2023-04-30T04:04:14.063Z,2.84
2023-04-30T04:09:16.239Z,2.81
2023-04-30T04:14:18.318Z,2.84
2023-04-30T04:19:21.476Z,3.06
2023-04-30T04:24:25.153Z,3.46
2023-04-30T04:29:27.346Z,3.85
2023-04-30T04:34:31.067Z,4.16
2023-04-30T04:39:33.169Z,4.33
2023-04-30T04:44:35.031Z,4.58
2023-04-30T04:49:38.554Z,5.54
2023-04-30T04:54:40.714Z,7.74
2023-04-30T04:59:43.144Z,9.36
2023-04-30T05:04:46.945Z,10.00
2023-04-30T05:09:49.189Z,10.92
2023-04-30T05:14:51.320Z,11.59
2023-04-30T05:19:54.922Z,12.43
2023-04-30T05:24:57.496Z,13.16
2023-04-30T05:29:59.644Z,12.03
2023-04-30T05:35:03.580Z,13.11
2023-04-30T05:40:07.189Z,11.97
2023-04-30T05:45:10.342Z,12.96
2023-04-30T05:50:14.016Z,12.49
2023-04-30T05:55:16.148Z,12.16
2023-04-30T06:00:18.417Z,11.94
2023-04-30T06:05:21.743Z,12.78
2023-04-30T06:10:24.077Z,11.48
2023-04-30T06:15:26.158Z,11.06
2023-04-30T06:20:29.750Z,10.37
2023-04-30T06:25:31.527Z,9.12
2023-04-30T06:30:33.923Z,8.73
2023-04-30T06:35:37.593Z,7.91
2023-04-30T06:40:39.711Z,8.28
2023-04-30T06:45:41.440Z,7.97
2023-04-30T06:50:44.845Z,8.32
2023-04-30T06:55:47.012Z,8.08
2023-04-30T07:00:49.133Z,8.44
2023-04-30T07:05:52.888Z,8.33
2023-04-30T07:10:54.908Z,8.83
2023-04-30T07:15:57.181Z,9.00
2023-04-30T07:21:00.287Z,8.85
2023-04-30T07:26:03.303Z,8.71
2023-04-30T07:31:05.708Z,8.89
2023-04-30T07:36:09.439Z,8.99
2023-04-30T07:41:11.503Z,8.88
2023-04-30T07:46:13.572Z,9.06
2023-04-30T07:51:17.169Z,9.14
2023-04-30T07:56:19.301Z,8.98
2023-04-30T08:01:21.391Z,9.10
2023-04-30T08:06:25.646Z,8.98
2023-04-30T08:11:27.993Z,9.14
2023-04-30T08:16:30.166Z,9.22
2023-04-30T08:21:33.775Z,9.60
2023-04-30T08:26:35.566Z,9.61
2023-04-30T08:31:37.866Z,9.71
2023-04-30T08:36:41.525Z,9.61
2023-04-30T08:41:50.525Z,9.90
2023-04-30T08:46:54.349Z,10.02
2023-04-30T08:51:57.506Z,10.61
2023-04-30T08:56:59.581Z,13.68
2023-04-30T09:02:01.775Z,15.21
2023-04-30T09:07:06.865Z,16.16
2023-04-30T09:12:17.823Z,16.03
2023-04-30T09:17:22.100Z,16.38
2023-04-30T09:22:25.301Z,18.68
2023-04-30T09:27:27.791Z,19.56
2023-04-30T09:32:29.625Z,19.81
2023-04-30T09:37:39.132Z,20.00
2023-04-30T09:42:41.014Z,19.38
2023-04-30T09:47:43.025Z,21.80
2023-04-30T09:52:53.231Z,21.80
2023-04-30T09:57:55.660Z,21.26
2023-04-30T10:02:59.666Z,19.93
2023-04-30T10:08:03.323Z,19.85
2023-04-30T10:13:09.445Z,20.94
2023-04-30T10:18:18.021Z,20.19
2023-04-30T10:23:21.565Z,21.28
2023-04-30T10:28:24.071Z,20.46
2023-04-30T10:33:32.271Z,17.90
2023-04-30T10:38:37.796Z,18.00
2023-04-30T10:43:39.791Z,17.62
2023-04-30T10:48:41.617Z,16.48
2023-04-30T10:53:45.400Z,16.64
2023-04-30T10:58:51.200Z,16.57
2023-04-30T11:04:06.216Z,16.59
2023-04-30T11:09:09.746Z,15.87
2023-04-30T11:14:12.654Z,14.74
2023-04-30T11:19:15.320Z,15.76
2023-04-30T11:24:20.227Z,15.48
2023-04-30T11:29:22.996Z,15.52
2023-04-30T11:34:25.327Z,14.65
2023-04-30T11:39:29.566Z,15.50
2023-04-30T11:44:31.241Z,14.54
2023-04-30T11:49:33.749Z,14.53
2023-04-30T11:54:38.109Z,15.21
2023-04-30T11:59:41.168Z,15.15
2023-04-30T12:04:43.307Z,14.63
2023-04-30T12:09:56.545Z,15.73
2023-04-30T12:14:58.808Z,16.42
2023-04-30T12:20:00.965Z,15.31
2023-04-30T12:25:08.961Z,15.51
2023-04-30T12:30:11.476Z,14.82
2023-04-30T12:35:14.947Z,15.36
2023-04-30T12:40:19.918Z,14.55
2023-04-30T12:45:43.907Z,14.81
2023-04-30T12:50:52.679Z,15.02
2023-04-30T12:56:13.314Z,15.57
2023-04-30T13:01:17.867Z,15.09
2023-04-30T13:06:21.265Z,15.33
2023-04-30T13:11:24.680Z,15.34
2023-04-30T13:16:26.951Z,15.60
2023-04-30T13:21:28.812Z,15.37
2023-04-30T13:26:32.392Z,15.32
2023-04-30T13:31:34.240Z,15.72
2023-04-30T13:36:36.332Z,15.49
2023-04-30T13:41:40.198Z,15.53
2023-04-30T13:46:42.240Z,15.38
2023-04-30T13:51:44.355Z,15.45
2023-04-30T13:56:47.489Z,15.43
2023-04-30T14:01:49.475Z,16.04
2023-04-30T14:06:51.774Z,15.57
2023-04-30T14:11:55.410Z,15.92
2023-04-30T14:16:57.467Z,16.28
2023-04-30T14:21:59.186Z,16.25
2023-04-30T14:27:02.622Z,16.13
2023-04-30T14:32:07.863Z,16.12
2023-04-30T14:37:10.085Z,16.28
2023-04-30T14:42:13.420Z,16.65
2023-04-30T14:47:17.790Z,16.21
2023-04-30T14:52:19.899Z,16.60
2023-04-30T14:57:23.530Z,16.68
2023-04-30T15:02:25.433Z,16.79
2023-04-30T15:07:27.721Z,16.19
2023-04-30T15:12:30.917Z,16.39
2023-04-30T15:17:32.909Z,16.80
2023-04-30T15:22:34.693Z,17.21
2023-04-30T15:27:38.024Z,16.43
2023-04-30T15:32:39.961Z,16.63
2023-04-30T15:37:42.086Z,16.65
2023-04-30T15:42:45.448Z,17.17
2023-04-30T15:47:47.256Z,16.87
2023-04-30T15:52:49.543Z,16.45
2023-04-30T15:57:52.742Z,16.61
2023-04-30T16:02:55.258Z,16.51
2023-04-30T16:07:57.517Z,16.44
2023-04-30T16:13:01.016Z,16.49
2023-04-30T16:18:03.267Z,16.57
2023-04-30T16:23:05.856Z,16.28
2023-04-30T16:28:09.203Z,16.47
2023-04-30T16:33:11.139Z,17.07
2023-04-30T16:38:13.239Z,16.56
2023-04-30T16:43:16.911Z,16.12
2023-04-30T16:48:18.791Z,16.02
2023-04-30T16:53:20.999Z,15.75
2023-04-30T16:58:24.647Z,15.53
2023-04-30T17:03:26.891Z,15.50
2023-04-30T17:08:28.862Z,15.10
2023-04-30T17:13:32.278Z,14.97
2023-04-30T17:18:33.981Z,14.81
2023-04-30T17:23:35.725Z,14.43
2023-04-30T17:28:39.007Z,14.39
2023-04-30T17:33:41.524Z,14.30
2023-04-30T17:38:43.684Z,14.16
2023-04-30T17:43:47.503Z,13.78
2023-04-30T17:48:49.678Z,13.53
2023-04-30T17:53:51.327Z,13.25
2023-04-30T17:58:54.810Z,13.15
2023-04-30T18:03:59.499Z,13.04
2023-04-30T18:09:01.361Z,12.61
2023-04-30T18:14:04.560Z,12.37
2023-04-30T18:19:06.452Z,12.17
2023-04-30T18:24:08.237Z,11.83
2023-04-30T18:29:11.422Z,11.56
2023-04-30T18:34:13.683Z,11.23
2023-04-30T18:39:15.395Z,10.90
2023-04-30T18:44:19.696Z,10.67
2023-04-30T18:49:21.387Z,10.39
2023-04-30T18:54:23.865Z,10.04
2023-04-30T18:59:26.904Z,9.68
2023-04-30T19:04:29.027Z,9.39
2023-04-30T19:09:30.787Z,9.08
2023-04-30T19:14:35.449Z,9.06
2023-04-30T19:19:37.158Z,8.82
2023-04-30T19:24:38.831Z,8.62
2023-04-30T19:29:42.335Z,8.46
2023-04-30T19:34:44.053Z,8.31
2023-04-30T19:39:46.179Z,8.20
2023-04-30T19:44:51.997Z,7.96
2023-04-30T19:49:54.003Z,7.78
2023-04-30T19:54:56.297Z,7.57
2023-04-30T19:59:59.793Z,7.53
2023-04-30T20:05:01.529Z,7.30
2023-04-30T20:10:04.007Z,7.22
2023-04-30T20:15:08.406Z,7.16
2023-04-30T20:20:11.370Z,6.94
2023-04-30T20:25:13.176Z,6.71
2023-04-30T20:30:16.976Z,6.55
2023-04-30T20:35:18.718Z,6.43
2023-04-30T20:40:20.754Z,6.30
2023-04-30T20:45:24.482Z,6.12
2023-04-30T20:50:26.541Z,5.89
2023-04-30T20:55:28.640Z,5.77
2023-04-30T21:00:31.760Z,5.68
2023-04-30T21:05:34.313Z,5.54
2023-04-30T21:10:37.057Z,5.34
2023-04-30T21:15:40.458Z,5.28
2023-04-30T21:20:42.408Z,5.47
2023-04-30T21:25:44.888Z,5.27
2023-04-30T21:30:48.771Z,5.04
2023-04-30T21:35:51.093Z,4.92
2023-04-30T21:40:54.123Z,4.70
2023-04-30T21:46:02.866Z,4.78
2023-04-30T21:51:11.662Z,4.46
2023-04-30T21:56:14.164Z,4.27
2023-04-30T22:01:17.832Z,4.17
2023-04-30T22:06:19.584Z,3.94
2023-04-30T22:11:21.746Z,3.90
2023-04-30T22:16:25.314Z,3.86
2023-04-30T22:21:27.185Z,3.79
2023-04-30T22:26:28.872Z,3.68
2023-04-30T22:31:31.997Z,3.79
2023-04-30T22:36:34.137Z,3.77
2023-04-30T22:41:36.242Z,3.56
2023-04-30T22:46:39.950Z,3.46
2023-04-30T22:51:43.100Z,3.42
2023-04-30T22:56:44.831Z,3.30
2023-04-30T23:01:48.430Z,3.40
2023-04-30T23:06:50.220Z,3.36
2023-04-30T23:11:52.016Z,3.22
2023-04-30T23:16:55.255Z,3.21
2023-04-30T23:21:57.442Z,3.08
2023-04-30T23:26:59.864Z,3.00
2023-04-30T23:32:03.444Z,2.97
2023-04-30T23:37:05.824Z,2.94
2023-04-30T23:42:08.293Z,2.78
2023-04-30T23:47:11.773Z,2.79
2023-04-30T23:52:13.512Z,2.83
2023-04-30T23:57:15.636Z,2.88
